Time;durP1;ratioP1;P1;durP2;ratioP2;P2;SDS_P1;SDS_P2;PMS_P1;PMS_P2;Temp;Humidity;BMP_temperature;BMP_pressure;BME280_temperature;BME280_humidity;BME280_pressure;Samples;Min_cycle;Max_cycle;Signal;HPM_P1;HPM_P2
2023/04/28 00:01:21;;;;;;;6.60;4.32;;;;;;;;;;4954982;29;20425;-74
2023/04/28 00:03:47;;;;;;;8.57;4.70;;;;;;;;;;4955222;29;20085;-73
2023/04/28 00:06:13;;;;;;;7.50;4.30;;;;;;;;;;4955166;29;20551;-73
2023/04/28 00:08:40;;;;;;;6.05;3.95;;;;;;;;;;4937691;29;20039;-72
2023/04/28 00:11:09;;;;;;;5.72;3.90;;;;;;;;;;4955638;29;20027;-73
2023/04/28 00:13:36;;;;;;;8.60;4.95;;;;;;;;;;4954584;29;20125;-74
2023/04/28 00:16:02;;;;;;;9.40;5.25;;;;;;;;;;4955481;29;20031;-73
2023/04/28 00:18:28;;;;;;;10.68;5.68;;;;;;;;;;4954416;29;20465;-73
2023/04/28 00:20:54;;;;;;;8.15;4.78;;;;;;;;;;4955400;29;20030;-73
2023/04/28 00:23:20;;;;;;;8.77;4.82;;;;;;;;;;4953743;29;20027;-73
2023/04/28 00:25:53;;;;;;;5.43;4.28;;;;;;;;;;4955222;29;20038;-73
2023/04/28 00:28:19;;;;;;;7.35;4.72;;;;;;;;;;4954325;29;20035;-78
2023/04/28 00:30:45;;;;;;;6.93;4.20;;;;;;;;;;4955315;29;20464;-73
2023/04/28 00:33:12;;;;;;;8.75;4.85;;;;;;;;;;4955138;28;20032;-73
2023/04/28 00:35:38;;;;;;;7.60;4.90;;;;;;;;;;4954733;29;20023;-74
2023/04/28 00:38:04;;;;;;;6.95;4.68;;;;;;;;;;4954922;29;20031;-72
2023/04/28 00:40:34;;;;;;;6.40;4.18;;;;;;;;;;4954812;29;20051;-73
2023/04/28 00:43:00;;;;;;;9.98;4.75;;;;;;;;;;4953917;29;20027;-72
2023/04/28 00:45:26;;;;;;;6.80;3.80;;;;;;;;;;4944181;29;20024;-74
2023/04/28 00:47:52;;;;;;;7.78;4.47;;;;;;;;;;4948160;29;20101;-73
2023/04/28 00:50:18;;;;;;;7.88;3.83;;;;;;;;;;4949337;29;20527;-78
2023/04/28 00:52:44;;;;;;;6.25;3.55;;;;;;;;;;4944168;29;20028;-72
2023/04/28 00:55:10;;;;;;;5.60;3.67;;;;;;;;;;4946796;29;20860;-72
2023/04/28 00:57:36;;;;;;;4.80;3.45;;;;;;;;;;4946981;29;20570;-71
2023/04/28 01:00:03;;;;;;;5.38;4.03;;;;;;;;;;4949418;29;20020;-71
2023/04/28 01:02:29;;;;;;;5.05;3.60;;;;;;;;;;4946276;29;20441;-72
2023/04/28 01:04:58;;;;;;;7.78;4.05;;;;;;;;;;4946931;28;20125;-73
2023/04/28 01:07:24;;;;;;;4.77;3.33;;;;;;;;;;4951542;29;20507;-72
2023/04/28 01:09:50;;;;;;;5.72;3.55;;;;;;;;;;4944252;29;20020;-72
2023/04/28 01:12:16;;;;;;;6.05;3.53;;;;;;;;;;4948526;29;20019;-76
2023/04/28 01:14:42;;;;;;;5.57;3.42;;;;;;;;;;4953398;29;20071;-73
2023/04/28 01:17:09;;;;;;;4.57;3.65;;;;;;;;;;4945704;29;20051;-73
2023/04/28 01:19:35;;;;;;;3.72;2.88;;;;;;;;;;4951648;29;20019;-73
2023/04/28 01:22:01;;;;;;;4.78;3.17;;;;;;;;;;4953861;29;20031;-73
2023/04/28 01:24:27;;;;;;;5.88;3.20;;;;;;;;;;4959301;29;20113;-73
2023/04/28 01:26:53;;;;;;;5.82;3.10;;;;;;;;;;4970351;29;20031;-72
2023/04/28 01:29:19;;;;;;;5.18;3.08;;;;;;;;;;4952847;29;20023;-78
2023/04/28 01:31:45;;;;;;;4.57;2.97;;;;;;;;;;4964181;29;20035;-72
2023/04/28 01:34:11;;;;;;;5.65;3.20;;;;;;;;;;4956472;29;20078;-73
2023/04/28 01:36:37;;;;;;;6.00;3.35;;;;;;;;;;4953125;29;20039;-73
2023/04/28 01:39:03;;;;;;;4.78;3.22;;;;;;;;;;4954115;29;20029;-73
2023/04/28 01:41:29;;;;;;;6.80;3.00;;;;;;;;;;4953030;29;20031;-73
2023/04/28 01:43:55;;;;;;;5.97;3.08;;;;;;;;;;4960103;28;20027;-74
2023/04/28 01:46:21;;;;;;;6.13;2.72;;;;;;;;;;4952560;29;20311;-74
2023/04/28 01:48:47;;;;;;;4.00;3.20;;;;;;;;;;4953848;29;20105;-73
2023/04/28 01:51:13;;;;;;;5.38;3.75;;;;;;;;;;4954113;29;20476;-72
2023/04/28 01:53:39;;;;;;;8.30;3.30;;;;;;;;;;4952140;29;20126;-73
2023/04/28 01:56:24;;;;;;;7.35;3.38;;;;;;;;;;4950502;29;20049;-73
2023/04/28 01:58:50;;;;;;;5.50;3.10;;;;;;;;;;4950091;29;20026;-73
2023/04/28 02:01:16;;;;;;;5.85;3.72;;;;;;;;;;4953287;29;20110;-77
2023/04/28 02:03:42;;;;;;;6.22;4.00;;;;;;;;;;4952175;29;20094;-73
2023/04/28 02:06:08;;;;;;;6.05;4.05;;;;;;;;;;4953392;29;20067;-72
2023/04/28 02:08:34;;;;;;;5.93;3.45;;;;;;;;;;4952438;29;20031;-72
2023/04/28 02:11:00;;;;;;;6.07;3.97;;;;;;;;;;4953581;29;20074;-73
2023/04/28 02:13:26;;;;;;;5.13;3.60;;;;;;;;;;4952179;29;20042;-73
2023/04/28 02:15:52;;;;;;;4.03;3.42;;;;;;;;;;4953354;29;20019;-73
2023/04/28 02:18:18;;;;;;;4.07;3.20;;;;;;;;;;4952832;29;20074;-77
2023/04/28 02:20:44;;;;;;;9.55;3.90;;;;;;;;;;4953566;29;20031;-73
2023/04/28 02:23:10;;;;;;;5.90;3.92;;;;;;;;;;4935478;29;20479;-73
2023/04/28 02:25:36;;;;;;;5.50;3.67;;;;;;;;;;4952725;29;20028;-75
2023/04/28 02:28:02;;;;;;;6.18;4.13;;;;;;;;;;4952675;29;20528;-73
2023/04/28 02:30:28;;;;;;;4.45;3.75;;;;;;;;;;4943522;28;20869;-73
2023/04/28 02:32:54;;;;;;;5.57;4.30;;;;;;;;;;4936366;28;20499;-72
2023/04/28 02:35:20;;;;;;;8.05;4.32;;;;;;;;;;4937892;28;20031;-72
2023/04/28 02:37:46;;;;;;;5.88;3.78;;;;;;;;;;4949490;28;20102;-72
2023/04/28 02:40:13;;;;;;;6.47;4.10;;;;;;;;;;4935117;29;20028;-72
2023/04/28 02:42:39;;;;;;;7.38;4.78;;;;;;;;;;4938926;29;20015;-71
2023/04/28 02:45:05;;;;;;;8.13;3.72;;;;;;;;;;4953878;29;20053;-71
2023/04/28 02:47:31;;;;;;;6.57;3.97;;;;;;;;;;4952437;29;20164;-71
2023/04/28 02:49:57;;;;;;;5.18;4.07;;;;;;;;;;4953751;29;20053;-71
2023/04/28 02:52:23;;;;;;;6.47;4.13;;;;;;;;;;4935508;29;20453;-72
2023/04/28 02:54:53;;;;;;;7.88;3.70;;;;;;;;;;4952476;28;20098;-71
2023/04/28 02:57:19;;;;;;;6.28;4.20;;;;;;;;;;4955561;29;20544;-77
2023/04/28 02:59:45;;;;;;;4.97;3.90;;;;;;;;;;4957725;29;20036;-71
2023/04/28 03:02:11;;;;;;;9.15;4.68;;;;;;;;;;4957037;29;20030;-71
2023/04/28 03:04:37;;;;;;;7.15;4.55;;;;;;;;;;4938824;29;20227;-73
2023/04/28 03:07:03;;;;;;;5.95;4.10;;;;;;;;;;4956570;29;20141;-72
2023/04/28 03:09:29;;;;;;;6.35;3.80;;;;;;;;;;4956234;29;20023;-71
2023/04/28 03:11:55;;;;;;;5.45;3.83;;;;;;;;;;4956556;28;20046;-71
2023/04/28 03:14:21;;;;;;;6.47;4.25;;;;;;;;;;4956276;29;20035;-72
2023/04/28 03:16:47;;;;;;;8.15;4.75;;;;;;;;;;4939257;29;20477;-72
2023/04/28 03:19:13;;;;;;;6.47;4.55;;;;;;;;;;4941215;28;20106;-73
2023/04/28 03:21:39;;;;;;;7.80;5.43;;;;;;;;;;4940182;28;20182;-72
2023/04/28 03:24:05;;;;;;;6.88;4.90;;;;;;;;;;4940914;28;20392;-72
2023/04/28 03:26:31;;;;;;;6.43;4.53;;;;;;;;;;4938937;28;20053;-73
2023/04/28 03:28:57;;;;;;;6.40;4.70;;;;;;;;;;4945851;28;20035;-71
2023/04/28 03:31:23;;;;;;;5.13;4.20;;;;;;;;;;4958400;28;20023;-72
2023/04/28 03:33:50;;;;;;;7.25;4.78;;;;;;;;;;4952737;29;20024;-71
2023/04/28 03:36:15;;;;;;;5.43;4.13;;;;;;;;;;4950740;29;20039;-79
2023/04/28 03:38:41;;;;;;;5.55;4.53;;;;;;;;;;4955408;29;20036;-71
2023/04/28 03:41:07;;;;;;;13.02;6.00;;;;;;;;;;4956668;29;20023;-71
2023/04/28 03:43:36;;;;;;;10.07;6.28;;;;;;;;;;4955190;29;20350;-71
2023/04/28 03:46:02;;;;;;;14.02;7.32;;;;;;;;;;4952291;28;20095;-71
2023/04/28 03:48:28;;;;;;;9.88;5.80;;;;;;;;;;4938618;29;20032;-71
2023/04/28 03:50:54;;;;;;;9.25;5.75;;;;;;;;;;4939944;28;20046;-71
2023/04/28 03:53:20;;;;;;;7.78;5.57;;;;;;;;;;4955198;29;20038;-73
2023/04/28 03:55:46;;;;;;;6.60;5.13;;;;;;;;;;4955770;29;20038;-70
2023/04/28 03:58:11;;;;;;;11.98;6.35;;;;;;;;;;4955820;29;20035;-70
2023/04/28 04:00:37;;;;;;;7.38;5.10;;;;;;;;;;4955307;29;20023;-71
2023/04/28 04:03:03;;;;;;;8.20;4.82;;;;;;;;;;4955420;29;20041;-71
2023/04/28 04:05:29;;;;;;;9.48;5.03;;;;;;;;;;4955180;29;20110;-71
2023/04/28 04:07:55;;;;;;;6.93;4.57;;;;;;;;;;4955353;28;20086;-71
2023/04/28 04:10:21;;;;;;;9.10;5.10;;;;;;;;;;4965048;28;20062;-71
2023/04/28 04:12:47;;;;;;;6.63;4.50;;;;;;;;;;4955603;29;20046;-70
2023/04/28 04:15:13;;;;;;;7.95;5.10;;;;;;;;;;4955908;29;20032;-71
2023/04/28 04:17:39;;;;;;;6.28;5.05;;;;;;;;;;4937379;29;20090;-71
2023/04/28 04:20:06;;;;;;;8.18;5.38;;;;;;;;;;4955833;29;20027;-71
2023/04/28 04:22:32;;;;;;;7.70;5.10;;;;;;;;;;4954668;29;20035;-70
2023/04/28 04:24:58;;;;;;;7.63;4.85;;;;;;;;;;4955920;29;20023;-70
2023/04/28 04:27:24;;;;;;;8.25;5.30;;;;;;;;;;4953849;28;20062;-70
2023/04/28 04:29:50;;;;;;;8.00;5.18;;;;;;;;;;4940317;28;20032;-70
2023/04/28 04:32:16;;;;;;;10.23;5.88;;;;;;;;;;4970757;28;20022;-77
2023/04/28 04:34:43;;;;;;;8.25;5.65;;;;;;;;;;4941068;28;20783;-71
2023/04/28 04:37:09;;;;;;;8.88;6.05;;;;;;;;;;4955116;29;20110;-71
2023/04/28 04:39:35;;;;;;;9.82;5.45;;;;;;;;;;4954596;29;20812;-71
2023/04/28 04:42:02;;;;;;;8.20;5.80;;;;;;;;;;4954957;29;20027;-71
2023/04/28 04:44:28;;;;;;;9.25;5.68;;;;;;;;;;4954783;29;20380;-70
2023/04/28 04:46:54;;;;;;;8.77;6.05;;;;;;;;;;4954851;29;20098;-69
2023/04/28 04:49:21;;;;;;;9.30;5.70;;;;;;;;;;4948993;29;20027;-71
2023/04/28 04:51:47;;;;;;;8.90;5.82;;;;;;;;;;4944181;28;20028;-72
2023/04/28 04:54:13;;;;;;;6.90;5.25;;;;;;;;;;4946949;29;20035;-71
2023/04/28 04:56:39;;;;;;;8.98;6.05;;;;;;;;;;4945722;29;20106;-70
2023/04/28 04:59:05;;;;;;;12.90;6.00;;;;;;;;;;4944331;29;20019;-71
2023/04/28 05:01:31;;;;;;;15.45;6.63;;;;;;;;;;4948046;29;20015;-72
2023/04/28 05:03:57;;;;;;;10.75;6.50;;;;;;;;;;4940461;28;20067;-73
2023/04/28 05:06:23;;;;;;;7.82;5.53;;;;;;;;;;4927002;28;20478;-71
2023/04/28 05:08:49;;;;;;;6.90;4.45;;;;;;;;;;4946970;28;20024;-71
2023/04/28 05:11:15;;;;;;;4.50;4.05;;;;;;;;;;4945573;28;20472;-72
2023/04/28 05:13:41;;;;;;;6.85;4.00;;;;;;;;;;4945075;29;20366;-70
2023/04/28 05:16:07;;;;;;;5.05;4.15;;;;;;;;;;4940849;28;20110;-76
2023/04/28 05:18:33;;;;;;;7.70;4.07;;;;;;;;;;4944100;28;20024;-70
2023/04/28 05:21:00;;;;;;;7.20;4.30;;;;;;;;;;4946264;29;20023;-72
2023/04/28 05:23:26;;;;;;;5.82;4.03;;;;;;;;;;4942752;29;20457;-72
2023/04/28 05:25:52;;;;;;;6.00;3.67;;;;;;;;;;4945715;29;20038;-71
2023/04/28 05:28:18;;;;;;;6.18;3.67;;;;;;;;;;4943260;29;20031;-78
2023/04/28 05:30:44;;;;;;;7.95;3.83;;;;;;;;;;4942420;28;20354;-71
2023/04/28 05:33:10;;;;;;;4.55;3.83;;;;;;;;;;4946019;28;20154;-72
2023/04/28 05:35:36;;;;;;;7.15;4.43;;;;;;;;;;4947721;28;20035;-72
2023/04/28 05:38:02;;;;;;;5.55;4.07;;;;;;;;;;4944087;29;20036;-71
2023/04/28 05:40:28;;;;;;;8.10;3.90;;;;;;;;;;4945431;29;20033;-71
2023/04/28 05:42:54;;;;;;;8.07;4.15;;;;;;;;;;4951296;29;20028;-71
2023/04/28 05:45:20;;;;;;;5.93;4.35;;;;;;;;;;4953644;29;20168;-72
2023/04/28 05:47:46;;;;;;;6.57;4.30;;;;;;;;;;4953898;29;20069;-71
2023/04/28 05:50:12;;;;;;;5.80;4.65;;;;;;;;;;4954425;29;20035;-71
2023/04/28 05:52:38;;;;;;;6.20;4.30;;;;;;;;;;4944513;28;20078;-74
2023/04/28 05:55:05;;;;;;;7.40;4.82;;;;;;;;;;4939643;28;20966;-77
2023/04/28 05:57:31;;;;;;;8.23;4.28;;;;;;;;;;4940008;28;20038;-71
2023/04/28 05:59:57;;;;;;;6.22;4.57;;;;;;;;;;4939323;28;20027;-71
2023/04/28 06:02:23;;;;;;;5.88;4.68;;;;;;;;;;4938530;28;20027;-71
2023/04/28 06:04:49;;;;;;;7.82;4.60;;;;;;;;;;4950275;28;20047;-70
2023/04/28 06:07:15;;;;;;;10.18;7.13;;;;;;;;;;4957564;28;20468;-71
2023/04/28 06:09:41;;;;;;;10.27;7.05;;;;;;;;;;4953487;29;20042;-70
2023/04/28 06:12:07;;;;;;;12.98;7.07;;;;;;;;;;4937479;29;20023;-69
2023/04/28 06:14:35;;;;;;;9.98;6.57;;;;;;;;;;4940737;29;20075;-71
2023/04/28 06:17:01;;;;;;;8.40;6.05;;;;;;;;;;4943801;29;20031;-71
2023/04/28 06:19:26;;;;;;;7.22;5.50;;;;;;;;;;4939878;28;20035;-71
2023/04/28 06:21:52;;;;;;;6.55;4.63;;;;;;;;;;4949816;29;20060;-71
2023/04/28 06:24:18;;;;;;;6.35;4.63;;;;;;;;;;4952947;29;20118;-81
2023/04/28 06:26:45;;;;;;;5.75;4.80;;;;;;;;;;4952440;29;20612;-71
2023/04/28 06:29:11;;;;;;;6.22;4.82;;;;;;;;;;4953754;29;20034;-71
2023/04/28 06:31:36;;;;;;;5.95;5.13;;;;;;;;;;4951554;28;20023;-73
2023/04/28 06:34:02;;;;;;;5.60;4.53;;;;;;;;;;4953455;29;20487;-71
2023/04/28 06:36:28;;;;;;;7.63;5.13;;;;;;;;;;4952133;29;20027;-75
2023/04/28 06:38:54;;;;;;;5.50;4.82;;;;;;;;;;4953670;29;20026;-72
2023/04/28 06:41:20;;;;;;;9.70;7.28;;;;;;;;;;4952931;29;20034;-84
2023/04/28 06:43:46;;;;;;;12.00;7.68;;;;;;;;;;4953553;29;20541;-71
2023/04/28 06:46:12;;;;;;;12.27;8.05;;;;;;;;;;4953723;29;20111;-72
2023/04/28 06:48:38;;;;;;;11.80;8.48;;;;;;;;;;4952209;29;20035;-71
2023/04/28 06:51:05;;;;;;;11.52;8.55;;;;;;;;;;4953520;29;20020;-73
2023/04/28 06:53:31;;;;;;;11.00;7.80;;;;;;;;;;4952117;29;20384;-71
2023/04/28 06:55:57;;;;;;;14.40;8.82;;;;;;;;;;4953595;29;20023;-72
2023/04/28 06:58:23;;;;;;;11.27;9.00;;;;;;;;;;4952330;29;20051;-71
2023/04/28 07:00:49;;;;;;;16.85;10.40;;;;;;;;;;4953739;29;20015;-73
2023/04/28 07:03:15;;;;;;;12.45;9.73;;;;;;;;;;4931441;29;20405;-79
2023/04/28 07:05:41;;;;;;;17.48;10.15;;;;;;;;;;4933920;29;20512;-70
2023/04/28 07:08:07;;;;;;;12.57;9.00;;;;;;;;;;4931153;29;20032;-72
2023/04/28 07:10:33;;;;;;;15.65;10.02;;;;;;;;;;4933494;29;20153;-72
2023/04/28 07:12:59;;;;;;;12.80;9.48;;;;;;;;;;4933794;29;20153;-71
2023/04/28 07:15:25;;;;;;;14.88;9.90;;;;;;;;;;4931644;29;20134;-72
2023/04/28 07:17:51;;;;;;;15.57;9.55;;;;;;;;;;4932918;29;20086;-71
2023/04/28 07:20:17;;;;;;;11.63;9.05;;;;;;;;;;4930783;29;20040;-79
2023/04/28 07:22:43;;;;;;;14.73;9.85;;;;;;;;;;4933177;29;20039;-70
2023/04/28 07:25:10;;;;;;;15.90;9.20;;;;;;;;;;4934049;29;20035;-73
2023/04/28 07:27:36;;;;;;;12.15;8.77;;;;;;;;;;4932406;29;20024;-70
2023/04/28 07:30:02;;;;;;;11.45;8.15;;;;;;;;;;4934025;29;20033;-71
2023/04/28 07:32:28;;;;;;;13.07;8.35;;;;;;;;;;4931068;29;20024;-73
2023/04/28 07:34:54;;;;;;;12.38;7.75;;;;;;;;;;4934247;29;20032;-71
2023/04/28 07:37:20;;;;;;;11.35;8.27;;;;;;;;;;4931486;29;20027;-82
2023/04/28 07:39:46;;;;;;;12.48;8.18;;;;;;;;;;4933310;29;20552;-70
2023/04/28 07:42:12;;;;;;;12.65;8.30;;;;;;;;;;4933883;29;20038;-71
2023/04/28 07:44:38;;;;;;;13.25;8.82;;;;;;;;;;4935392;29;20596;-71
2023/04/28 07:47:04;;;;;;;11.65;8.02;;;;;;;;;;4936231;29;20059;-71
2023/04/28 07:49:30;;;;;;;10.38;8.13;;;;;;;;;;4936085;29;20062;-72
2023/04/28 07:51:56;;;;;;;10.88;8.65;;;;;;;;;;4936914;29;20153;-72
2023/04/28 07:54:23;;;;;;;12.45;8.75;;;;;;;;;;4936691;29;20031;-72
2023/04/28 07:56:49;;;;;;;11.45;8.20;;;;;;;;;;4937382;29;20043;-70
2023/04/28 07:59:15;;;;;;;12.15;8.20;;;;;;;;;;4937726;29;20472;-72
2023/04/28 08:01:41;;;;;;;11.15;7.88;;;;;;;;;;4937774;29;20032;-72
2023/04/28 08:04:07;;;;;;;10.68;7.65;;;;;;;;;;4948086;29;20043;-72
2023/04/28 08:06:35;;;;;;;10.45;7.75;;;;;;;;;;4956043;29;20392;-71
2023/04/28 08:09:01;;;;;;;13.57;7.97;;;;;;;;;;4954915;29;20031;-76
2023/04/28 08:11:27;;;;;;;9.35;5.72;;;;;;;;;;4943508;29;20030;-72
2023/04/28 08:13:53;;;;;;;8.48;5.75;;;;;;;;;;4955563;29;20091;-72
2023/04/28 08:16:21;;;;;;;8.27;6.13;;;;;;;;;;4956556;29;20376;-80
2023/04/28 08:18:47;;;;;;;8.50;5.53;;;;;;;;;;4956392;29;20027;-73
2023/04/28 08:21:13;;;;;;;7.30;5.30;;;;;;;;;;4956708;29;20054;-72
2023/04/28 08:23:39;;;;;;;7.25;5.43;;;;;;;;;;4955877;29;20063;-72
2023/04/28 08:26:05;;;;;;;6.72;5.28;;;;;;;;;;4956946;29;20038;-71
2023/04/28 08:28:32;;;;;;;7.18;4.72;;;;;;;;;;4956019;29;20031;-72
2023/04/28 08:30:59;;;;;;;9.18;5.70;;;;;;;;;;4950501;29;20041;-71
2023/04/28 08:33:25;;;;;;;11.50;7.63;;;;;;;;;;4951808;29;20106;-71
2023/04/28 08:35:51;;;;;;;15.32;9.55;;;;;;;;;;4956445;29;20283;-70
2023/04/28 08:38:17;;;;;;;17.65;11.57;;;;;;;;;;4956444;29;20034;-74
2023/04/28 08:40:44;;;;;;;18.85;12.18;;;;;;;;;;4955766;29;20027;-72
2023/04/28 08:43:10;;;;;;;15.57;11.55;;;;;;;;;;4951037;29;20027;-72
2023/04/28 08:45:40;;;;;;;15.40;11.55;;;;;;;;;;4954711;28;20366;-71
2023/04/28 08:48:06;;;;;;;;;;;;;;;;;;4956627;29;20106;-72
2023/04/28 08:50:32;;;;;;;;;;;;;;;;;;4955040;29;19954;-72
2023/04/28 08:52:58;;;;;;;;;;;;;;;;;;4956387;28;19906;-72
2023/04/28 08:55:24;;;;;;;;;;;;;;;;;;4953520;29;20383;-72
2023/04/28 08:57:50;;;;;;;;;;;;;;;;;;4948160;29;20344;-72
2023/04/28 09:00:16;;;;;;;;;;;;;;;;;;4937406;29;19914;-77
2023/04/28 09:02:42;;;;;;;;;;;;;;;;;;4946217;29;19907;-74
2023/04/28 09:05:08;;;;;;;;;;;;;;;;;;4945945;29;20006;-72
2023/04/28 09:07:35;;;;;;;;;;;;;;;;;;4950519;29;19918;-71
2023/04/28 09:10:01;;;;;;;;;;;;;;;;;;4951537;29;20299;-73
2023/04/28 09:12:27;;;;;;;;;;;;;;;;;;4943771;29;19961;-73
2023/04/28 09:14:52;;;;;;;;;;;;;;;;;;4954241;29;20012;-73
2023/04/28 09:17:18;;;;;;;;;;;;;;;;;;4953405;29;19910;-80
2023/04/28 09:19:44;;;;;;;;;;;;;;;;;;4954786;29;19980;-72
2023/04/28 09:22:10;;;;;;;;;;;;;;;;;;4954352;29;20367;-71
2023/04/28 09:24:38;;;;;;;;;;;;;;;;;;4953338;28;19914;-73
2023/04/28 09:27:06;;;;;;;;;;;;;;;;;;4953934;29;20315;-72
2023/04/28 09:29:32;;;;;;;;;;;;;;;;;;4953223;29;20303;-73
2023/04/28 09:31:58;;;;;;;;;;;;;;;;;;4950798;29;19914;-74
2023/04/28 09:34:24;;;;;;;;;;;;;;;;;;4952899;29;19911;-73
2023/04/28 09:36:50;;;;;;;;;;;;;;;;;;4952777;29;19910;-72
2023/04/28 09:39:16;;;;;;;;;;;;;;;;;;4953256;29;19910;-78
2023/04/28 09:41:42;;;;;;;;;;;;;;;;;;4953417;29;20066;-74
2023/04/28 09:44:08;;;;;;;;;;;;;;;;;;4953226;29;19917;-74
2023/04/28 09:46:34;;;;;;;;;;;;;;;;;;4952862;29;20045;-73
2023/04/28 09:48:59;;;;;;;;;;;;;;;;;;4954036;29;19925;-73
2023/04/28 09:51:25;;;;;;;;;;;;;;;;;;4952833;29;19910;-74
2023/04/28 09:53:51;;;;;;;;;;;;;;;;;;4952507;29;19974;-72
2023/04/28 09:56:19;;;;;;;;;;;;;;;;;;4949344;29;19917;-74
2023/04/28 09:58:45;;;;;;;;;;;;;;;;;;4953852;29;19906;-72
2023/04/28 10:01:11;;;;;;;;;;;;;;;;;;4954190;29;19906;-73
2023/04/28 10:03:37;;;;;;;;;;;;;;;;;;4945944;28;20084;-74
2023/04/28 10:06:03;;;;;;;;;;;;;;;;;;4950178;28;20391;-73
2023/04/28 10:08:29;;;;;;;;;;;;;;;;;;4948462;29;20086;-72
2023/04/28 10:10:56;;;;;;;;;;;;;;;;;;4953229;29;19961;-71
2023/04/28 10:13:22;;;;;;;;;;;;;;;;;;4952772;28;19984;-72
2023/04/28 10:15:48;;;;;;;;;;;;;;;;;;4952579;29;20369;-72
2023/04/28 10:18:14;;;;;;;;;;;;;;;;;;4947535;28;20015;-73
2023/04/28 10:20:40;;;;;;;;;;;;;;;;;;4952344;29;19910;-74
2023/04/28 10:23:06;;;;;;;;;;;;;;;;;;4952580;29;19966;-72
2023/04/28 10:25:32;;;;;;;;;;;;;;;;;;4951973;29;19919;-73
2023/04/28 10:27:58;;;;;;;;;;;;;;;;;;4953020;29;19921;-74
2023/04/28 10:30:24;;;;;;;;;;;;;;;;;;4952646;29;19914;-74
2023/04/28 10:32:50;;;;;;;;;;;;;;;;;;4952356;29;19989;-73
2023/04/28 10:35:16;;;;;;;;;;;;;;;;;;4952356;29;20005;-76
2023/04/28 10:38:00;;;;;;;;;;;16.90;99.90;;;;;;4951257;29;19914;-74
2023/04/28 10:40:33;;;;;;;;;;;16.90;99.90;;;;;;4951883;29;19914;-74
2023/04/28 10:42:58;;;;;;;;;;;17.00;99.90;;;;;;4964513;28;20363;-74
2023/04/28 10:45:42;;;;;;;;;;;17.10;99.90;;;;;;4953971;28;19916;-74
2023/04/28 10:48:08;;;;;;;;;;;17.10;99.90;;;;;;4952467;29;20360;-74
2023/04/28 10:50:36;;;;;;;;;;;17.00;99.90;;;;;;4952373;29;19946;-73
2023/04/28 10:53:02;;;;;;;;;;;16.90;99.90;;;;;;4952248;29;19914;-73
2023/04/28 10:55:38;;;;;;;;;;;16.70;99.90;;;;;;4952098;29;19910;-73
2023/04/28 10:58:19;;;;;;;;;;;16.60;99.90;;;;;;4952272;29;20008;-73
2023/04/28 11:00:46;;;;;;;;;;;16.70;99.90;;;;;;4952816;29;19946;-74
2023/04/28 11:03:38;;;;;;;;;;;16.70;99.90;;;;;;4956534;29;19918;-73
2023/04/28 11:06:25;;;;;;;;;;;16.80;99.90;;;;;;4909636;29;20056;-72
2023/04/28 11:08:51;;;;;;;;;;;16.90;99.90;;;;;;4946703;28;20276;-72
2023/04/28 11:11:18;;;;;;;;;;;17.10;99.90;;;;;;4943951;28;19914;-75
2023/04/28 11:13:45;;;;;;;;;;;17.20;99.90;;;;;;4952180;29;19910;-72
2023/04/28 11:16:24;;;;;;;;;;;17.50;99.90;;;;;;4952694;28;19918;-73
2023/04/28 11:18:49;;;;;;;;;;;17.70;99.90;;;;;;4949464;28;19995;-73
2023/04/28 11:21:15;;;;;;;;;;;17.80;99.90;;;;;;4956255;29;19910;-75
2023/04/28 11:23:42;;;;;;;;;;;17.70;99.90;;;;;;4954873;29;19918;-73
2023/04/28 11:26:07;;;;;;;;;;;17.60;99.90;;;;;;4939092;29;19910;-73
2023/04/28 11:28:35;;;;;;;;;;;17.70;99.90;;;;;;4948194;28;19914;-73
2023/04/28 11:31:13;;;;;;;;;;;17.70;99.90;;;;;;4956144;29;19914;-72
2023/04/28 11:33:40;;;;;;;;;;;17.80;99.90;;;;;;4954443;29;20505;-72
2023/04/28 11:36:06;;;;;;;;;;;17.80;99.90;;;;;;4955773;29;19957;-72
2023/04/28 11:38:44;;;;;;;;;;;17.70;99.90;;;;;;4951426;29;19918;-72
2023/04/28 11:41:09;;;;;;;;;;;17.80;99.90;;;;;;4954776;29;19910;-72
2023/04/28 11:43:35;;;;;;;;;;;17.90;99.90;;;;;;4954620;29;19988;-73
2023/04/28 11:46:00;;;;;;;;;;;18.00;99.90;;;;;;4955773;29;20291;-73
2023/04/28 11:48:26;;;;;;;;;;;18.10;99.90;;;;;;4953978;29;19926;-72
2023/04/28 11:50:51;;;;;;;;;;;18.20;99.90;;;;;;4955878;29;19961;-72
2023/04/28 11:53:17;;;;;;;;;;;18.20;99.90;;;;;;4957416;28;19929;-76
2023/04/28 11:55:42;;;;;;;;;;;18.30;99.90;;;;;;4965598;28;19964;-72
2023/04/28 11:58:18;;;;;;;;;;;18.50;99.90;;;;;;4964520;28;19912;-74
2023/04/28 12:00:43;;;;;;;;;;;18.80;99.90;;;;;;4957671;28;19945;-73
2023/04/28 12:03:09;;;;;;;;;;;18.90;99.90;;;;;;4955002;29;19956;-73
2023/04/28 12:05:43;;;;;;;;;;;19.00;99.90;;;;;;4954706;29;19929;-73
2023/04/28 12:08:08;;;;;;;;;;;19.00;99.90;;;;;;4955538;29;19960;-73
2023/04/28 12:10:34;;;;;;;;;;;18.90;99.90;;;;;;4961916;28;19946;-74
2023/04/28 12:13:13;;;;;;;;;;;18.90;99.90;;;;;;4955600;29;19907;-74
2023/04/28 12:15:39;;;;;;;;;;;18.90;99.90;;;;;;4954690;29;19949;-73
2023/04/28 12:18:09;;;;;;;;;;;18.90;99.90;;;;;;4955478;29;19942;-73
2023/04/28 12:20:36;;;;;;;;;;;19.00;99.90;;;;;;4954764;29;19910;-75
2023/04/28 12:23:01;;;;;;;;;;;18.90;99.90;;;;;;4948165;29;20430;-72
2023/04/28 12:25:27;;;;;;;;;;;18.80;99.90;;;;;;4954349;29;19918;-74
2023/04/28 12:28:06;;;;;;;;;;;18.80;99.90;;;;;;4954555;28;19917;-72
2023/04/28 12:30:33;;;;;;;;;;;18.70;99.90;;;;;;4954832;29;19926;-73
2023/04/28 12:32:58;;;;;;;;;;;18.80;99.90;;;;;;4949718;29;20287;-72
2023/04/28 12:35:25;;;;;;;;;;;18.70;99.90;;;;;;4954151;29;19925;-73
2023/04/28 12:37:51;;;;;;;;;;;18.70;99.90;;;;;;4954606;29;19949;-72
2023/04/28 12:40:17;;;;;;;;;;;18.60;99.90;;;;;;4954844;29;19957;-76
2023/04/28 12:42:43;;;;;;;;;;;18.60;99.90;;;;;;4954009;29;19914;-73
2023/04/28 12:45:08;;;;;;;;;;;18.60;99.90;;;;;;4954718;29;19911;-72
2023/04/28 12:47:35;;;;;;;;;;;18.50;99.90;;;;;;4953590;29;19954;-73
2023/04/28 12:50:00;;;;;;;;;;;18.50;99.90;;;;;;4954566;29;20275;-72
2023/04/28 12:52:26;;;;;;;;;;;18.40;99.90;;;;;;4952639;29;19914;-72
2023/04/28 12:54:51;;;;;;;;;;;18.30;99.90;;;;;;4954024;29;20004;-74
2023/04/28 12:57:17;;;;;;;;;;;18.20;99.90;;;;;;4953665;29;20348;-75
2023/04/28 12:59:43;;;;;;;;;;;17.90;99.90;;;;;;4954600;29;19918;-73
2023/04/28 13:02:09;;;;;;;;;;;17.60;99.90;;;;;;4954124;28;19907;-73
2023/04/28 13:04:35;;;;;;;;;;;17.30;99.90;;;;;;4953479;29;20292;-73
2023/04/28 13:07:01;;;;;;;;;;;17.00;99.90;;;;;;4954293;29;19914;-73
2023/04/28 13:09:26;;;;;;;;;;;16.80;99.90;;;;;;4954218;29;20028;-73
2023/04/28 13:11:52;;;;;;;;;;;16.70;99.90;;;;;;4950712;29;19910;-73
2023/04/28 13:14:20;;;;;;;;;;;16.60;99.90;;;;;;4951183;29;20411;-74
2023/04/28 13:16:46;;;;;;;;;;;16.60;99.90;;;;;;4956056;29;19925;-73
2023/04/28 13:19:13;;;;;;;;;;;16.60;99.90;;;;;;4954174;29;19911;-72
2023/04/28 13:21:40;;;;;;;;;;;16.50;99.90;;;;;;4953572;29;19906;-72
2023/04/28 13:24:06;;;;;;;;;;;16.70;99.90;;;;;;4954201;29;19918;-72
2023/04/28 13:26:32;;;;;;;;;;;16.70;99.90;;;;;;4949783;29;20290;-74
2023/04/28 13:28:57;;;;;;;;;;;16.90;99.90;;;;;;4954807;29;19942;-74
2023/04/28 13:31:23;;;;;;;;;;;16.90;99.90;;;;;;4953374;29;19958;-72
2023/04/28 13:33:48;;;;;;;;;;;17.00;99.90;;;;;;4954641;29;20391;-74
2023/04/28 13:36:14;;;;;;;;;;;16.90;99.90;;;;;;4954728;29;19918;-73
2023/04/28 13:38:39;;;;;;;;;;;16.90;99.90;;;;;;4953129;29;19911;-77
2023/04/28 13:41:05;;;;;;;;;;;16.90;99.90;;;;;;4963559;28;19910;-74
2023/04/28 13:43:30;;;;;;;;;;;16.90;99.90;;;;;;4972310;29;19910;-73
2023/04/28 13:45:56;;;;;;;;;;;16.80;99.90;;;;;;4971486;29;19918;-74
2023/04/28 13:48:22;;;;;;;;;;;16.60;99.90;;;;;;4964522;29;20513;-73
2023/04/28 13:50:48;;;;;;;;;;;16.40;99.90;;;;;;4971125;29;20364;-73
2023/04/28 13:53:14;;;;;;;;;;;16.20;99.90;;;;;;4975585;28;19919;-74
2023/04/28 13:55:39;;;;;;;;;;;15.90;99.90;;;;;;4966768;28;19909;-72
2023/04/28 13:58:05;;;;;;;;;;;15.70;99.90;;;;;;4959686;28;19918;-74
2023/04/28 14:00:31;;;;;;;;;;;15.40;99.90;;;;;;4963612;29;19911;-74
2023/04/28 14:02:57;;;;;;;;;;;15.30;99.90;;;;;;4955063;29;19915;-73
2023/04/28 14:05:23;;;;;;;;;;;15.20;99.90;;;;;;4955946;29;19906;-73
2023/04/28 14:07:49;;;;;;;;;;;15.10;99.90;;;;;;4957335;29;19910;-75
2023/04/28 14:10:14;;;;;;;;;;;15.10;99.90;;;;;;4957724;29;20045;-74
2023/04/28 14:12:41;;;;;;;;;;;15.10;99.90;;;;;;4956943;29;19907;-74
2023/04/28 14:15:06;;;;;;;;;;;15.10;99.90;;;;;;4955853;29;19910;-73
2023/04/28 14:17:33;;;;;;;;;;;15.00;99.90;;;;;;4935188;29;20381;-73
2023/04/28 14:19:59;;;;;;;;;;;14.80;99.90;;;;;;4953584;29;19911;-73
2023/04/28 14:22:25;;;;;;;;;;;14.80;99.90;;;;;;4952380;29;19997;-74
2023/04/28 14:24:50;;;;;;;;;;;14.70;99.90;;;;;;4939760;29;20329;-73
2023/04/28 14:27:16;;;;;;;;;;;14.60;99.90;;;;;;4949789;29;20415;-75
2023/04/28 14:29:42;;;;;;;;;;;14.60;99.90;;;;;;4953294;29;20260;-73
2023/04/28 14:32:08;;;;;;;;;;;14.50;99.90;;;;;;4952152;29;21329;-74
2023/04/28 14:34:33;;;;;;;;;;;14.50;99.90;;;;;;4948645;28;19914;-74
2023/04/28 14:36:59;;;;;;;;;;;14.50;99.90;;;;;;4952797;29;19949;-74
2023/04/28 14:39:24;;;;;;;;;;;14.50;99.90;;;;;;4952940;29;19906;-73
2023/04/28 14:41:50;;;;;;;;;;;14.60;99.90;;;;;;4952882;29;19918;-74